sensor_id;sensor_type;location;lat;lon;timestamp;temperature;humidity
45491;DHT22;31237;45.586;13.782;2023-03-23T00:01:14;11.70;70.10
45491;DHT22;31237;45.586;13.782;2023-03-23T00:03:41;11.60;70.10
45491;DHT22;31237;45.586;13.782;2023-03-23T00:06:09;11.70;69.90
45491;DHT22;31237;45.586;13.782;2023-03-23T00:08:37;11.70;69.80
45491;DHT22;31237;45.586;13.782;2023-03-23T00:11:06;11.70;69.70
45491;DHT22;31237;45.586;13.782;2023-03-23T00:13:33;11.60;69.70
45491;DHT22;31237;45.586;13.782;2023-03-23T00:15:59;11.60;69.50
45491;DHT22;31237;45.586;13.782;2023-03-23T00:18:25;11.60;69.60
45491;DHT22;31237;45.586;13.782;2023-03-23T00:20:53;11.60;69.50
45491;DHT22;31237;45.586;13.782;2023-03-23T00:23:22;11.60;69.50
45491;DHT22;31237;45.586;13.782;2023-03-23T00:25:50;11.60;69.20
45491;DHT22;31237;45.586;13.782;2023-03-23T00:28:18;11.60;69.20
45491;DHT22;31237;45.586;13.782;2023-03-23T00:30:56;11.60;69.20
45491;DHT22;31237;45.586;13.782;2023-03-23T00:36:15;11.60;69.00
45491;DHT22;31237;45.586;13.782;2023-03-23T00:38:43;11.60;68.80
45491;DHT22;31237;45.586;13.782;2023-03-23T00:41:09;11.60;68.70
45491;DHT22;31237;45.586;13.782;2023-03-23T00:43:37;11.60;69.20
45491;DHT22;31237;45.586;13.782;2023-03-23T00:46:04;11.50;68.40
45491;DHT22;31237;45.586;13.782;2023-03-23T00:48:35;11.50;68.20
45491;DHT22;31237;45.586;13.782;2023-03-23T00:51:02;11.50;68.30
45491;DHT22;31237;45.586;13.782;2023-03-23T00:53:32;11.40;68.10
45491;DHT22;31237;45.586;13.782;2023-03-23T00:55:58;11.50;68.10
45491;DHT22;31237;45.586;13.782;2023-03-23T00:58:24;11.40;68.10
45491;DHT22;31237;45.586;13.782;2023-03-23T01:00:49;11.40;68.10
45491;DHT22;31237;45.586;13.782;2023-03-23T01:03:15;11.40;68.00
45491;DHT22;31237;45.586;13.782;2023-03-23T01:05:44;11.40;67.90
45491;DHT22;31237;45.586;13.782;2023-03-23T01:08:13;11.40;67.70
45491;DHT22;31237;45.586;13.782;2023-03-23T01:10:39;11.40;67.70
45491;DHT22;31237;45.586;13.782;2023-03-23T01:13:07;11.40;67.70
45491;DHT22;31237;45.586;13.782;2023-03-23T01:15:33;11.40;67.70
45491;DHT22;31237;45.586;13.782;2023-03-23T01:17:59;11.40;67.70
45491;DHT22;31237;45.586;13.782;2023-03-23T01:20:25;11.50;67.70
45491;DHT22;31237;45.586;13.782;2023-03-23T01:22:52;11.50;67.70
45491;DHT22;31237;45.586;13.782;2023-03-23T01:25:18;11.50;67.80
45491;DHT22;31237;45.586;13.782;2023-03-23T01:27:44;11.50;67.90
45491;DHT22;31237;45.586;13.782;2023-03-23T01:30:11;11.50;67.80
45491;DHT22;31237;45.586;13.782;2023-03-23T01:32:38;11.40;67.90
45491;DHT22;31237;45.586;13.782;2023-03-23T01:35:04;11.40;68.00
45491;DHT22;31237;45.586;13.782;2023-03-23T01:37:30;11.40;68.10
45491;DHT22;31237;45.586;13.782;2023-03-23T01:39:57;11.40;68.10
45491;DHT22;31237;45.586;13.782;2023-03-23T01:42:24;11.40;68.20
45491;DHT22;31237;45.586;13.782;2023-03-23T01:47:16;11.40;68.20
45491;DHT22;31237;45.586;13.782;2023-03-23T01:49:46;11.30;68.20
45491;DHT22;31237;45.586;13.782;2023-03-23T01:52:16;11.40;68.30
45491;DHT22;31237;45.586;13.782;2023-03-23T01:54:44;11.30;68.40
45491;DHT22;31237;45.586;13.782;2023-03-23T01:57:19;11.30;68.70
45491;DHT22;31237;45.586;13.782;2023-03-23T01:59:49;11.30;68.80
45491;DHT22;31237;45.586;13.782;2023-03-23T02:02:17;11.30;69.00
45491;DHT22;31237;45.586;13.782;2023-03-23T02:04:43;11.30;69.10
45491;DHT22;31237;45.586;13.782;2023-03-23T02:07:12;11.30;69.40
45491;DHT22;31237;45.586;13.782;2023-03-23T02:09:39;11.30;69.50
45491;DHT22;31237;45.586;13.782;2023-03-23T02:12:05;11.30;69.40
45491;DHT22;31237;45.586;13.782;2023-03-23T02:14:31;11.30;69.60
45491;DHT22;31237;45.586;13.782;2023-03-23T02:24:57;11.30;70.00
45491;DHT22;31237;45.586;13.782;2023-03-23T02:36:10;11.30;69.30
45491;DHT22;31237;45.586;13.782;2023-03-23T02:41:52;11.40;69.20
45491;DHT22;31237;45.586;13.782;2023-03-23T02:44:22;11.30;69.10
45491;DHT22;31237;45.586;13.782;2023-03-23T02:46:49;11.20;69.20
45491;DHT22;31237;45.586;13.782;2023-03-23T02:49:17;11.20;69.30
45491;DHT22;31237;45.586;13.782;2023-03-23T02:51:45;11.10;69.40
45491;DHT22;31237;45.586;13.782;2023-03-23T02:54:12;11.10;69.50
45491;DHT22;31237;45.586;13.782;2023-03-23T02:56:39;11.00;69.60
45491;DHT22;31237;45.586;13.782;2023-03-23T02:59:06;11.00;69.60
45491;DHT22;31237;45.586;13.782;2023-03-23T03:04:11;11.10;69.50
45491;DHT22;31237;45.586;13.782;2023-03-23T03:06:54;11.20;69.40
45491;DHT22;31237;45.586;13.782;2023-03-23T03:09:43;11.20;69.10
45491;DHT22;31237;45.586;13.782;2023-03-23T03:12:20;11.20;69.10
45491;DHT22;31237;45.586;13.782;2023-03-23T03:15:04;11.20;69.20
45491;DHT22;31237;45.586;13.782;2023-03-23T03:17:36;11.10;69.30
45491;DHT22;31237;45.586;13.782;2023-03-23T03:20:06;11.10;69.60
45491;DHT22;31237;45.586;13.782;2023-03-23T03:22:38;11.10;69.90
45491;DHT22;31237;45.586;13.782;2023-03-23T03:25:08;11.00;69.90
45491;DHT22;31237;45.586;13.782;2023-03-23T03:27:35;11.00;70.20
45491;DHT22;31237;45.586;13.782;2023-03-23T03:30:03;11.00;70.30
45491;DHT22;31237;45.586;13.782;2023-03-23T03:32:36;11.10;70.40
45491;DHT22;31237;45.586;13.782;2023-03-23T03:35:05;11.10;70.50
45491;DHT22;31237;45.586;13.782;2023-03-23T03:37:38;11.00;70.50
45491;DHT22;31237;45.586;13.782;2023-03-23T03:40:09;11.00;70.50
45491;DHT22;31237;45.586;13.782;2023-03-23T03:42:38;11.00;70.60
45491;DHT22;31237;45.586;13.782;2023-03-23T03:45:04;11.00;70.70
45491;DHT22;31237;45.586;13.782;2023-03-23T03:47:31;11.00;70.70
45491;DHT22;31237;45.586;13.782;2023-03-23T03:49:57;11.10;70.70
45491;DHT22;31237;45.586;13.782;2023-03-23T03:52:22;11.10;70.80
45491;DHT22;31237;45.586;13.782;2023-03-23T03:54:48;11.10;70.80
45491;DHT22;31237;45.586;13.782;2023-03-23T03:57:14;11.20;70.80
45491;DHT22;31237;45.586;13.782;2023-03-23T03:59:39;11.20;70.60
45491;DHT22;31237;45.586;13.782;2023-03-23T04:02:06;11.20;70.70
45491;DHT22;31237;45.586;13.782;2023-03-23T04:04:32;11.20;70.70
45491;DHT22;31237;45.586;13.782;2023-03-23T04:06:58;11.20;70.60
45491;DHT22;31237;45.586;13.782;2023-03-23T04:09:23;11.20;70.60
45491;DHT22;31237;45.586;13.782;2023-03-23T04:11:49;11.20;70.70
45491;DHT22;31237;45.586;13.782;2023-03-23T04:14:15;11.30;70.70
45491;DHT22;31237;45.586;13.782;2023-03-23T04:16:40;11.30;70.70
45491;DHT22;31237;45.586;13.782;2023-03-23T04:19:07;11.30;70.60
45491;DHT22;31237;45.586;13.782;2023-03-23T04:21:32;11.30;70.60
45491;DHT22;31237;45.586;13.782;2023-03-23T04:23:59;11.30;70.60
45491;DHT22;31237;45.586;13.782;2023-03-23T04:26:28;11.40;70.60
45491;DHT22;31237;45.586;13.782;2023-03-23T04:28:57;11.40;70.70
45491;DHT22;31237;45.586;13.782;2023-03-23T04:31:24;11.40;70.70
45491;DHT22;31237;45.586;13.782;2023-03-23T04:33:51;11.40;70.70
45491;DHT22;31237;45.586;13.782;2023-03-23T04:36:20;11.40;70.70
45491;DHT22;31237;45.586;13.782;2023-03-23T04:38:48;11.40;70.70
45491;DHT22;31237;45.586;13.782;2023-03-23T04:41:15;11.30;70.70
45491;DHT22;31237;45.586;13.782;2023-03-23T04:43:41;11.30;70.80
45491;DHT22;31237;45.586;13.782;2023-03-23T04:46:08;11.30;70.80
45491;DHT22;31237;45.586;13.782;2023-03-23T04:48:36;11.30;70.90
45491;DHT22;31237;45.586;13.782;2023-03-23T04:51:05;11.30;71.00
45491;DHT22;31237;45.586;13.782;2023-03-23T04:53:31;11.30;71.10
45491;DHT22;31237;45.586;13.782;2023-03-23T04:55:57;11.30;71.10
45491;DHT22;31237;45.586;13.782;2023-03-23T04:58:23;11.30;71.20
45491;DHT22;31237;45.586;13.782;2023-03-23T05:00:50;11.30;71.20
45491;DHT22;31237;45.586;13.782;2023-03-23T05:03:20;11.30;71.20
45491;DHT22;31237;45.586;13.782;2023-03-23T05:05:46;11.30;71.30
45491;DHT22;31237;45.586;13.782;2023-03-23T05:08:23;11.40;71.30
45491;DHT22;31237;45.586;13.782;2023-03-23T05:10:56;11.40;71.20
45491;DHT22;31237;45.586;13.782;2023-03-23T05:13:22;11.30;71.20
45491;DHT22;31237;45.586;13.782;2023-03-23T05:15:49;11.40;71.30
45491;DHT22;31237;45.586;13.782;2023-03-23T05:18:15;11.30;71.40
45491;DHT22;31237;45.586;13.782;2023-03-23T05:20:42;11.30;71.50
45491;DHT22;31237;45.586;13.782;2023-03-23T05:23:08;11.30;71.60
45491;DHT22;31237;45.586;13.782;2023-03-23T05:25:35;11.30;71.60
45491;DHT22;31237;45.586;13.782;2023-03-23T05:28:09;11.30;71.70
45491;DHT22;31237;45.586;13.782;2023-03-23T05:30:36;11.30;71.80
45491;DHT22;31237;45.586;13.782;2023-03-23T05:33:02;11.40;71.80
45491;DHT22;31237;45.586;13.782;2023-03-23T05:35:29;11.40;72.20
45491;DHT22;31237;45.586;13.782;2023-03-23T05:37:55;11.40;71.90
45491;DHT22;31237;45.586;13.782;2023-03-23T05:40:22;11.40;71.90
45491;DHT22;31237;45.586;13.782;2023-03-23T05:42:51;11.50;72.00
45491;DHT22;31237;45.586;13.782;2023-03-23T05:45:17;11.60;72.00
45491;DHT22;31237;45.586;13.782;2023-03-23T05:47:43;11.60;72.00
45491;DHT22;31237;45.586;13.782;2023-03-23T05:50:10;11.70;72.00
45491;DHT22;31237;45.586;13.782;2023-03-23T05:52:36;11.70;72.60
45491;DHT22;31237;45.586;13.782;2023-03-23T05:55:03;11.70;71.80
45491;DHT22;31237;45.586;13.782;2023-03-23T05:57:30;11.80;71.80
45491;DHT22;31237;45.586;13.782;2023-03-23T05:59:56;11.80;71.70
45491;DHT22;31237;45.586;13.782;2023-03-23T06:02:23;11.80;71.70
45491;DHT22;31237;45.586;13.782;2023-03-23T06:04:53;11.90;71.80
45491;DHT22;31237;45.586;13.782;2023-03-23T06:07:26;12.00;71.90
45491;DHT22;31237;45.586;13.782;2023-03-23T06:09:52;12.00;71.80
45491;DHT22;31237;45.586;13.782;2023-03-23T06:12:18;12.00;71.70
45491;DHT22;31237;45.586;13.782;2023-03-23T06:14:46;12.10;71.60
45491;DHT22;31237;45.586;13.782;2023-03-23T06:17:14;12.10;71.50
45491;DHT22;31237;45.586;13.782;2023-03-23T06:19:40;12.20;71.60
45491;DHT22;31237;45.586;13.782;2023-03-23T06:22:06;12.30;71.40
45491;DHT22;31237;45.586;13.782;2023-03-23T06:24:31;12.40;71.00
45491;DHT22;31237;45.586;13.782;2023-03-23T06:26:58;12.40;70.70
45491;DHT22;31237;45.586;13.782;2023-03-23T06:29:24;12.50;70.40
45491;DHT22;31237;45.586;13.782;2023-03-23T06:31:54;12.60;70.40
45491;DHT22;31237;45.586;13.782;2023-03-23T06:34:21;12.70;70.20
45491;DHT22;31237;45.586;13.782;2023-03-23T06:36:47;12.80;69.90
45491;DHT22;31237;45.586;13.782;2023-03-23T06:39:13;12.90;69.80
45491;DHT22;31237;45.586;13.782;2023-03-23T06:41:39;13.00;69.70
45491;DHT22;31237;45.586;13.782;2023-03-23T06:44:06;13.10;69.30
45491;DHT22;31237;45.586;13.782;2023-03-23T06:46:32;13.30;69.20
45491;DHT22;31237;45.586;13.782;2023-03-23T06:48:59;13.40;69.00
45491;DHT22;31237;45.586;13.782;2023-03-23T06:51:26;13.50;68.50
45491;DHT22;31237;45.586;13.782;2023-03-23T06:53:52;13.70;68.70
45491;DHT22;31237;45.586;13.782;2023-03-23T06:56:18;13.80;68.40
45491;DHT22;31237;45.586;13.782;2023-03-23T06:58:43;13.90;68.20
45491;DHT22;31237;45.586;13.782;2023-03-23T07:01:11;14.00;68.10
45491;DHT22;31237;45.586;13.782;2023-03-23T07:03:38;14.20;67.90
45491;DHT22;31237;45.586;13.782;2023-03-23T07:06:04;14.30;67.70
45491;DHT22;31237;45.586;13.782;2023-03-23T07:08:31;14.40;67.30
45491;DHT22;31237;45.586;13.782;2023-03-23T07:10:56;14.50;67.30
45491;DHT22;31237;45.586;13.782;2023-03-23T07:13:23;14.60;67.90
45491;DHT22;31237;45.586;13.782;2023-03-23T07:15:49;14.70;67.00
45491;DHT22;31237;45.586;13.782;2023-03-23T07:18:16;14.80;66.30
45491;DHT22;31237;45.586;13.782;2023-03-23T07:20:41;14.90;66.40
45491;DHT22;31237;45.586;13.782;2023-03-23T07:23:08;15.00;66.20
45491;DHT22;31237;45.586;13.782;2023-03-23T07:25:34;15.10;65.70
45491;DHT22;31237;45.586;13.782;2023-03-23T07:28:02;15.10;66.00
45491;DHT22;31237;45.586;13.782;2023-03-23T07:30:28;15.10;66.00
45491;DHT22;31237;45.586;13.782;2023-03-23T07:32:56;15.20;65.70
45491;DHT22;31237;45.586;13.782;2023-03-23T07:35:22;15.20;66.00
45491;DHT22;31237;45.586;13.782;2023-03-23T07:37:48;15.20;65.90
45491;DHT22;31237;45.586;13.782;2023-03-23T07:40:18;15.30;66.00
45491;DHT22;31237;45.586;13.782;2023-03-23T07:42:46;15.30;66.00
45491;DHT22;31237;45.586;13.782;2023-03-23T07:45:16;15.40;65.90
45491;DHT22;31237;45.586;13.782;2023-03-23T07:47:42;15.50;65.60
45491;DHT22;31237;45.586;13.782;2023-03-23T07:50:08;15.70;65.70
45491;DHT22;31237;45.586;13.782;2023-03-23T07:52:36;15.80;65.10
45491;DHT22;31237;45.586;13.782;2023-03-23T07:55:02;15.90;64.60
45491;DHT22;31237;45.586;13.782;2023-03-23T07:57:29;16.00;63.30
45491;DHT22;31237;45.586;13.782;2023-03-23T07:59:55;16.00;62.50
45491;DHT22;31237;45.586;13.782;2023-03-23T08:02:22;16.10;62.40
45491;DHT22;31237;45.586;13.782;2023-03-23T08:04:48;16.20;62.60
45491;DHT22;31237;45.586;13.782;2023-03-23T08:07:15;16.20;62.10
45491;DHT22;31237;45.586;13.782;2023-03-23T08:09:42;16.30;62.20
45491;DHT22;31237;45.586;13.782;2023-03-23T08:12:08;16.40;62.90
45491;DHT22;31237;45.586;13.782;2023-03-23T08:14:34;16.40;62.70
45491;DHT22;31237;45.586;13.782;2023-03-23T08:16:59;16.50;62.80
45491;DHT22;31237;45.586;13.782;2023-03-23T08:19:26;16.70;62.60
45491;DHT22;31237;45.586;13.782;2023-03-23T08:21:51;16.70;62.30
45491;DHT22;31237;45.586;13.782;2023-03-23T08:24:18;16.80;62.00
45491;DHT22;31237;45.586;13.782;2023-03-23T08:26:44;16.90;62.20
45491;DHT22;31237;45.586;13.782;2023-03-23T08:29:10;17.00;61.70
45491;DHT22;31237;45.586;13.782;2023-03-23T08:31:36;17.00;61.50
45491;DHT22;31237;45.586;13.782;2023-03-23T08:34:03;17.10;61.10
45491;DHT22;31237;45.586;13.782;2023-03-23T08:36:34;17.10;61.40
45491;DHT22;31237;45.586;13.782;2023-03-23T08:39:00;17.10;61.30
45491;DHT22;31237;45.586;13.782;2023-03-23T08:41:26;17.10;61.30
45491;DHT22;31237;45.586;13.782;2023-03-23T08:43:52;17.20;61.10
45491;DHT22;31237;45.586;13.782;2023-03-23T08:46:18;17.20;61.20
45491;DHT22;31237;45.586;13.782;2023-03-23T08:48:45;17.30;61.20
45491;DHT22;31237;45.586;13.782;2023-03-23T08:51:11;17.30;60.80
45491;DHT22;31237;45.586;13.782;2023-03-23T08:53:38;17.40;60.20
45491;DHT22;31237;45.586;13.782;2023-03-23T08:56:09;17.50;60.20
45491;DHT22;31237;45.586;13.782;2023-03-23T08:58:36;17.60;60.00
45491;DHT22;31237;45.586;13.782;2023-03-23T09:01:02;17.60;59.80
45491;DHT22;31237;45.586;13.782;2023-03-23T09:03:29;17.60;60.00
45491;DHT22;31237;45.586;13.782;2023-03-23T09:05:59;17.70;59.70
45491;DHT22;31237;45.586;13.782;2023-03-23T09:08:26;17.70;59.00
45491;DHT22;31237;45.586;13.782;2023-03-23T09:10:55;17.70;58.70
45491;DHT22;31237;45.586;13.782;2023-03-23T09:13:20;17.80;58.10
45491;DHT22;31237;45.586;13.782;2023-03-23T09:15:46;17.70;58.00
45491;DHT22;31237;45.586;13.782;2023-03-23T09:18:13;17.70;57.70
45491;DHT22;31237;45.586;13.782;2023-03-23T09:20:40;17.70;57.40
45491;DHT22;31237;45.586;13.782;2023-03-23T09:23:08;17.60;57.60
45491;DHT22;31237;45.586;13.782;2023-03-23T09:25:33;17.60;57.80
45491;DHT22;31237;45.586;13.782;2023-03-23T09:27:59;17.60;57.90
45491;DHT22;31237;45.586;13.782;2023-03-23T09:30:30;17.60;58.00
45491;DHT22;31237;45.586;13.782;2023-03-23T09:32:56;17.60;58.30
45491;DHT22;31237;45.586;13.782;2023-03-23T09:35:23;17.70;57.90
45491;DHT22;31237;45.586;13.782;2023-03-23T09:37:51;17.80;57.80
45491;DHT22;31237;45.586;13.782;2023-03-23T09:45:52;17.90;59.10
45491;DHT22;31237;45.586;13.782;2023-03-23T09:51:50;18.10;58.50
45491;DHT22;31237;45.586;13.782;2023-03-23T09:54:30;18.20;57.90
45491;DHT22;31237;45.586;13.782;2023-03-23T09:56:58;18.30;57.70
45491;DHT22;31237;45.586;13.782;2023-03-23T10:02:18;18.50;57.20
45491;DHT22;31237;45.586;13.782;2023-03-23T10:04:47;18.60;57.20
45491;DHT22;31237;45.586;13.782;2023-03-23T10:07:18;18.70;56.90
45491;DHT22;31237;45.586;13.782;2023-03-23T10:09:46;18.80;56.70
45491;DHT22;31237;45.586;13.782;2023-03-23T10:12:42;18.80;56.20
45491;DHT22;31237;45.586;13.782;2023-03-23T10:15:26;18.80;56.00
45491;DHT22;31237;45.586;13.782;2023-03-23T10:22:53;18.60;55.10
45491;DHT22;31237;45.586;13.782;2023-03-23T10:25:22;18.70;55.30
45491;DHT22;31237;45.586;13.782;2023-03-23T10:31:00;18.60;55.40
45491;DHT22;31237;45.586;13.782;2023-03-23T10:38:56;18.40;55.70
45491;DHT22;31237;45.586;13.782;2023-03-23T10:41:23;18.50;55.70
45491;DHT22;31237;45.586;13.782;2023-03-23T10:43:49;18.40;55.70
45491;DHT22;31237;45.586;13.782;2023-03-23T10:46:31;18.50;55.50
45491;DHT22;31237;45.586;13.782;2023-03-23T10:49:00;18.50;55.70
45491;DHT22;31237;45.586;13.782;2023-03-23T10:51:41;18.50;55.70
45491;DHT22;31237;45.586;13.782;2023-03-23T10:54:07;18.50;56.10
45491;DHT22;31237;45.586;13.782;2023-03-23T10:56:44;18.60;55.70
45491;DHT22;31237;45.586;13.782;2023-03-23T10:59:15;18.60;55.00
45491;DHT22;31237;45.586;13.782;2023-03-23T11:01:44;18.60;55.00
45491;DHT22;31237;45.586;13.782;2023-03-23T11:04:13;18.60;54.80
45491;DHT22;31237;45.586;13.782;2023-03-23T11:06:44;18.60;53.60
45491;DHT22;31237;45.586;13.782;2023-03-23T11:09:17;18.50;53.10
45491;DHT22;31237;45.586;13.782;2023-03-23T11:11:54;18.50;53.40
45491;DHT22;31237;45.586;13.782;2023-03-23T11:14:31;18.50;53.60
45491;DHT22;31237;45.586;13.782;2023-03-23T11:16:59;18.40;53.60
45491;DHT22;31237;45.586;13.782;2023-03-23T11:19:34;18.30;54.60
45491;DHT22;31237;45.586;13.782;2023-03-23T11:24:36;18.20;54.50
45491;DHT22;31237;45.586;13.782;2023-03-23T11:27:03;18.20;54.30
45491;DHT22;31237;45.586;13.782;2023-03-23T11:29:33;18.20;54.70
45491;DHT22;31237;45.586;13.782;2023-03-23T11:34:40;18.20;55.30
45491;DHT22;31237;45.586;13.782;2023-03-23T11:37:11;18.20;54.70
45491;DHT22;31237;45.586;13.782;2023-03-23T11:40:14;18.20;55.60
45491;DHT22;31237;45.586;13.782;2023-03-23T11:47:56;18.20;55.30
45491;DHT22;31237;45.586;13.782;2023-03-23T11:50:43;18.20;55.40
45491;DHT22;31237;45.586;13.782;2023-03-23T11:56:11;18.00;56.00
45491;DHT22;31237;45.586;13.782;2023-03-23T11:58:38;18.00;56.00
45491;DHT22;31237;45.586;13.782;2023-03-23T12:01:17;17.90;55.80
45491;DHT22;31237;45.586;13.782;2023-03-23T12:04:04;17.80;55.60
45491;DHT22;31237;45.586;13.782;2023-03-23T12:13:15;17.80;56.20
45491;DHT22;31237;45.586;13.782;2023-03-23T12:16:17;17.80;56.40
45491;DHT22;31237;45.586;13.782;2023-03-23T12:32:19;18.30;55.80
45491;DHT22;31237;45.586;13.782;2023-03-23T12:52:04;18.10;55.70
45491;DHT22;31237;45.586;13.782;2023-03-23T12:57:14;18.00;55.90
45491;DHT22;31237;45.586;13.782;2023-03-23T13:00:04;18.00;56.20
45491;DHT22;31237;45.586;13.782;2023-03-23T13:02:42;17.90;55.90
45491;DHT22;31237;45.586;13.782;2023-03-23T13:08:21;17.80;56.30
45491;DHT22;31237;45.586;13.782;2023-03-23T13:10:50;17.80;56.60
45491;DHT22;31237;45.586;13.782;2023-03-23T13:13:23;17.80;56.20
45491;DHT22;31237;45.586;13.782;2023-03-23T13:16:35;17.80;56.30
45491;DHT22;31237;45.586;13.782;2023-03-23T13:21:38;18.00;56.40
45491;DHT22;31237;45.586;13.782;2023-03-23T13:24:09;18.00;55.90
45491;DHT22;31237;45.586;13.782;2023-03-23T13:26:41;18.10;55.30
45491;DHT22;31237;45.586;13.782;2023-03-23T13:29:19;18.10;55.70
45491;DHT22;31237;45.586;13.782;2023-03-23T13:31:46;18.10;56.00
45491;DHT22;31237;45.586;13.782;2023-03-23T13:34:18;18.10;55.70
45491;DHT22;31237;45.586;13.782;2023-03-23T13:39:33;18.10;55.50
45491;DHT22;31237;45.586;13.782;2023-03-23T13:50:12;17.80;55.00
45491;DHT22;31237;45.586;13.782;2023-03-23T13:53:22;17.90;55.00
45491;DHT22;31237;45.586;13.782;2023-03-23T13:55:49;17.80;55.20
45491;DHT22;31237;45.586;13.782;2023-03-23T13:58:26;17.80;54.90
45491;DHT22;31237;45.586;13.782;2023-03-23T14:01:11;17.90;55.00
45491;DHT22;31237;45.586;13.782;2023-03-23T14:03:40;17.80;55.00
45491;DHT22;31237;45.586;13.782;2023-03-23T14:06:27;17.70;55.00
45491;DHT22;31237;45.586;13.782;2023-03-23T14:09:10;17.70;54.40
45491;DHT22;31237;45.586;13.782;2023-03-23T14:11:57;17.70;54.00
45491;DHT22;31237;45.586;13.782;2023-03-23T14:14:39;17.60;53.50
45491;DHT22;31237;45.586;13.782;2023-03-23T14:17:30;17.60;52.50
45491;DHT22;31237;45.586;13.782;2023-03-23T14:19:58;17.60;52.90
45491;DHT22;31237;45.586;13.782;2023-03-23T14:22:25;17.50;53.60
45491;DHT22;31237;45.586;13.782;2023-03-23T14:24:59;17.50;53.80
45491;DHT22;31237;45.586;13.782;2023-03-23T14:27:26;17.50;53.80
45491;DHT22;31237;45.586;13.782;2023-03-23T14:29:59;17.50;54.30
45491;DHT22;31237;45.586;13.782;2023-03-23T14:32:28;17.50;53.90
45491;DHT22;31237;45.586;13.782;2023-03-23T14:34:55;17.40;53.70
45491;DHT22;31237;45.586;13.782;2023-03-23T14:37:22;17.40;53.40
45491;DHT22;31237;45.586;13.782;2023-03-23T14:39:51;17.30;53.60
45491;DHT22;31237;45.586;13.782;2023-03-23T14:42:22;17.30;53.80
45491;DHT22;31237;45.586;13.782;2023-03-23T14:44:50;17.30;53.90
45491;DHT22;31237;45.586;13.782;2023-03-23T14:49:54;17.20;54.30
45491;DHT22;31237;45.586;13.782;2023-03-23T14:52:22;17.20;54.50
45491;DHT22;31237;45.586;13.782;2023-03-23T14:54:48;17.20;54.70
45491;DHT22;31237;45.586;13.782;2023-03-23T14:57:26;17.20;55.10
45491;DHT22;31237;45.586;13.782;2023-03-23T14:59:53;17.20;55.30
45491;DHT22;31237;45.586;13.782;2023-03-23T15:02:25;17.30;55.40
45491;DHT22;31237;45.586;13.782;2023-03-23T15:05:05;17.30;55.50
45491;DHT22;31237;45.586;13.782;2023-03-23T15:07:36;17.20;55.60
45491;DHT22;31237;45.586;13.782;2023-03-23T15:10:09;17.30;55.80
45491;DHT22;31237;45.586;13.782;2023-03-23T15:12:38;17.20;55.70
45491;DHT22;31237;45.586;13.782;2023-03-23T15:15:06;17.20;55.60
45491;DHT22;31237;45.586;13.782;2023-03-23T15:17:37;17.20;55.60
45491;DHT22;31237;45.586;13.782;2023-03-23T15:20:19;17.20;55.50
45491;DHT22;31237;45.586;13.782;2023-03-23T15:22:47;17.20;54.70
45491;DHT22;31237;45.586;13.782;2023-03-23T15:25:31;17.10;54.70
45491;DHT22;31237;45.586;13.782;2023-03-23T15:28:18;17.00;54.90
45491;DHT22;31237;45.586;13.782;2023-03-23T15:30:52;16.90;55.00
45491;DHT22;31237;45.586;13.782;2023-03-23T15:33:19;16.90;55.10
45491;DHT22;31237;45.586;13.782;2023-03-23T15:35:52;16.80;55.30
45491;DHT22;31237;45.586;13.782;2023-03-23T15:38:22;16.80;55.70
45491;DHT22;31237;45.586;13.782;2023-03-23T15:40:50;16.80;55.90
45491;DHT22;31237;45.586;13.782;2023-03-23T15:43:20;16.80;56.00
45491;DHT22;31237;45.586;13.782;2023-03-23T15:46:16;16.80;56.20
45491;DHT22;31237;45.586;13.782;2023-03-23T15:48:48;16.80;56.20
45491;DHT22;31237;45.586;13.782;2023-03-23T15:51:19;16.80;56.30
45491;DHT22;31237;45.586;13.782;2023-03-23T15:53:45;16.70;56.30
45491;DHT22;31237;45.586;13.782;2023-03-23T15:56:12;16.70;56.20
45491;DHT22;31237;45.586;13.782;2023-03-23T15:58:39;16.70;56.50
45491;DHT22;31237;45.586;13.782;2023-03-23T16:01:10;16.60;56.20
45491;DHT22;31237;45.586;13.782;2023-03-23T16:03:47;16.60;55.90
45491;DHT22;31237;45.586;13.782;2023-03-23T16:06:14;16.60;56.20
45491;DHT22;31237;45.586;13.782;2023-03-23T16:08:41;16.60;56.30
45491;DHT22;31237;45.586;13.782;2023-03-23T16:11:11;16.50;56.30
45491;DHT22;31237;45.586;13.782;2023-03-23T16:13:38;16.50;56.30
45491;DHT22;31237;45.586;13.782;2023-03-23T16:16:05;16.40;56.00
45491;DHT22;31237;45.586;13.782;2023-03-23T16:18:33;16.40;55.60
45491;DHT22;31237;45.586;13.782;2023-03-23T16:20:59;16.30;56.00
45491;DHT22;31237;45.586;13.782;2023-03-23T16:23:25;16.30;55.70
45491;DHT22;31237;45.586;13.782;2023-03-23T16:25:51;16.20;55.70
45491;DHT22;31237;45.586;13.782;2023-03-23T16:28:17;16.10;55.80
45491;DHT22;31237;45.586;13.782;2023-03-23T16:30:45;16.10;55.90
45491;DHT22;31237;45.586;13.782;2023-03-23T16:33:11;16.00;55.90
45491;DHT22;31237;45.586;13.782;2023-03-23T16:35:37;16.00;55.90
45491;DHT22;31237;45.586;13.782;2023-03-23T16:38:04;15.90;56.20
45491;DHT22;31237;45.586;13.782;2023-03-23T16:40:30;15.90;56.40
45491;DHT22;31237;45.586;13.782;2023-03-23T16:42:56;15.80;56.60
45491;DHT22;31237;45.586;13.782;2023-03-23T16:45:22;15.80;56.70
45491;DHT22;31237;45.586;13.782;2023-03-23T16:47:49;15.80;56.80
45491;DHT22;31237;45.586;13.782;2023-03-23T16:50:17;15.70;57.00
45491;DHT22;31237;45.586;13.782;2023-03-23T16:52:47;15.70;57.70
45491;DHT22;31237;45.586;13.782;2023-03-23T16:55:16;15.70;57.80
45491;DHT22;31237;45.586;13.782;2023-03-23T16:57:42;15.60;58.20
45491;DHT22;31237;45.586;13.782;2023-03-23T17:00:10;15.50;58.10
45491;DHT22;31237;45.586;13.782;2023-03-23T17:02:40;15.50;58.50
45491;DHT22;31237;45.586;13.782;2023-03-23T17:05:07;15.40;58.80
45491;DHT22;31237;45.586;13.782;2023-03-23T17:07:33;15.30;59.00
45491;DHT22;31237;45.586;13.782;2023-03-23T17:09:59;15.20;59.20
45491;DHT22;31237;45.586;13.782;2023-03-23T17:12:24;15.10;59.40
45491;DHT22;31237;45.586;13.782;2023-03-23T17:14:50;15.00;59.70
45491;DHT22;31237;45.586;13.782;2023-03-23T17:17:16;15.00;59.80
45491;DHT22;31237;45.586;13.782;2023-03-23T17:19:42;14.90;60.10
45491;DHT22;31237;45.586;13.782;2023-03-23T17:22:07;14.80;60.30
45491;DHT22;31237;45.586;13.782;2023-03-23T17:24:33;14.70;60.50
45491;DHT22;31237;45.586;13.782;2023-03-23T17:26:59;14.60;60.60
45491;DHT22;31237;45.586;13.782;2023-03-23T17:29:24;14.60;60.70
45491;DHT22;31237;45.586;13.782;2023-03-23T17:31:50;14.50;61.00
45491;DHT22;31237;45.586;13.782;2023-03-23T17:34:16;14.40;61.10